createdAt,value
2018-09-02T00:00:36.775Z,101377.83
2018-09-02T00:01:42.888Z,101381.80
2018-09-02T00:02:49.305Z,101377.00
2018-09-02T00:03:55.766Z,101378.23
2018-09-02T00:05:02.090Z,101374.09
2018-09-02T00:06:08.495Z,101377.02
2018-09-02T00:07:14.788Z,101372.89
2018-09-02T00:08:21.977Z,101371.45
2018-09-02T00:09:28.401Z,101371.57
2018-09-02T00:10:34.544Z,101369.39
2018-09-02T00:11:40.116Z,101375.38
2018-09-02T00:12:46.736Z,101380.94
2018-09-02T00:13:53.147Z,101382.44
2018-09-02T00:14:59.837Z,101385.20
2018-09-02T00:16:05.918Z,101377.33
2018-09-02T00:17:12.797Z,101380.95
2018-09-02T00:18:18.868Z,101377.05
2018-09-02T00:19:25.149Z,101374.34
2018-09-02T00:20:31.558Z,101377.88
2018-09-02T00:21:38.142Z,101377.67
2018-09-02T00:22:44.511Z,101377.06
2018-09-02T00:23:50.881Z,101380.57
2018-09-02T00:24:57.237Z,101380.57
2018-09-02T00:26:03.598Z,101387.58
2018-09-02T00:27:10.020Z,101383.81
2018-09-02T00:28:16.040Z,101384.98
2018-09-02T00:29:22.334Z,101382.27
2018-09-02T00:30:28.680Z,101377.08
2018-09-02T00:31:35.868Z,101379.84
2018-09-02T00:32:42.285Z,101384.12
2018-09-02T00:33:48.461Z,101378.11
2018-09-02T00:34:55.132Z,101376.91
2018-09-02T00:36:01.137Z,101377.49
2018-09-02T00:37:07.534Z,101375.68
2018-09-02T00:38:13.870Z,101378.88
2018-09-02T00:39:20.261Z,101378.08
2018-09-02T00:40:26.721Z,101376.44
2018-09-02T00:41:32.991Z,101369.67
2018-09-02T00:42:39.296Z,101371.46
2018-09-02T00:43:45.735Z,101373.19
2018-09-02T00:44:51.720Z,101378.75
2018-09-02T00:45:58.133Z,101373.81
2018-09-02T00:47:03.771Z,101370.82
2018-09-02T00:48:10.150Z,101372.55
2018-09-02T00:49:16.450Z,101370.33
2018-09-02T00:50:22.900Z,101369.04
2018-09-02T00:51:30.076Z,101372.39
2018-09-02T00:52:36.525Z,101369.20
2018-09-02T00:53:42.394Z,101372.30
2018-09-02T00:54:48.736Z,101373.91
2018-09-02T00:55:57.383Z,101369.20
2018-09-02T00:57:05.299Z,101369.56
2018-09-02T00:58:14.327Z,101368.22
2018-09-02T00:59:22.104Z,101364.98
2018-09-02T01:00:29.436Z,101365.87
2018-09-02T01:01:34.920Z,101365.36
2018-09-02T01:02:41.156Z,101362.13
2018-09-02T01:03:47.549Z,101364.25
2018-09-02T01:04:53.950Z,101362.19
2018-09-02T01:06:00.276Z,101363.45
2018-09-02T01:07:06.232Z,101364.65
2018-09-02T01:08:12.289Z,101363.88
2018-09-02T01:09:18.586Z,101368.28
2018-09-02T01:10:25.497Z,101366.68
2018-09-02T01:11:31.817Z,101367.70
2018-09-02T01:12:39.033Z,101366.66
2018-09-02T01:13:45.117Z,101365.52
2018-09-02T01:14:51.563Z,101363.70
2018-09-02T01:15:58.842Z,101352.28
2018-09-02T01:17:05.005Z,101358.22
2018-09-02T01:18:11.339Z,101355.88
2018-09-02T01:19:17.372Z,101359.55
2018-09-02T01:20:23.741Z,101356.41
2018-09-02T01:21:29.758Z,101357.42
2018-09-02T01:22:35.760Z,101356.66
2018-09-02T01:23:42.092Z,101360.96
2018-09-02T01:24:48.440Z,101359.78
2018-09-02T01:25:54.933Z,101359.36
2018-09-02T01:27:01.230Z,101360.65
2018-09-02T01:28:07.605Z,101362.80
2018-09-02T01:29:13.922Z,101359.82
2018-09-02T01:30:20.293Z,101360.28
2018-09-02T01:31:27.272Z,101358.06
2018-09-02T01:32:33.263Z,101355.52
2018-09-02T01:33:39.876Z,101354.65
2018-09-02T01:34:46.303Z,101353.20
2018-09-02T01:35:52.643Z,101360.22
2018-09-02T01:36:59.028Z,101358.47
2018-09-02T01:38:05.124Z,101363.41
2018-09-02T01:39:10.983Z,101363.02
2018-09-02T01:40:16.993Z,101352.70
2018-09-02T01:41:23.204Z,101360.30
2018-09-02T01:42:30.460Z,101357.84
2018-09-02T01:43:36.871Z,101358.34
2018-09-02T01:44:43.316Z,101353.66
2018-09-02T01:45:49.751Z,101356.47
2018-09-02T01:46:56.040Z,101356.61
2018-09-02T01:48:02.129Z,101351.66
2018-09-02T01:49:08.583Z,101358.64
2018-09-02T01:50:14.992Z,101352.42
2018-09-02T01:51:21.450Z,101355.26
2018-09-02T01:52:27.820Z,101358.77
2018-09-02T01:53:34.134Z,101359.14
2018-09-02T01:54:40.753Z,101353.60
2018-09-02T01:55:47.187Z,101353.66
2018-09-02T01:56:53.565Z,101359.82
2018-09-02T01:57:59.933Z,101359.41
2018-09-02T01:59:06.800Z,101360.25
2018-09-02T02:00:12.866Z,101361.14
2018-09-02T02:01:19.504Z,101362.86
2018-09-02T02:02:25.771Z,101362.86
2018-09-02T02:03:32.051Z,101362.52
2018-09-02T02:04:38.277Z,101359.88
2018-09-02T02:05:44.342Z,101357.66
2018-09-02T02:06:50.725Z,101364.19
2018-09-02T02:07:56.979Z,101367.97
2018-09-02T02:09:03.217Z,101358.58
2018-09-02T02:10:09.360Z,101366.22
2018-09-02T02:11:15.757Z,101366.25
2018-09-02T02:12:22.041Z,101362.98
2018-09-02T02:13:28.420Z,101357.26
2018-09-02T02:14:34.762Z,101359.27
2018-09-02T02:15:40.884Z,101356.84
2018-09-02T02:16:47.233Z,101357.63
2018-09-02T02:17:53.495Z,101350.61
2018-09-02T02:18:59.939Z,101358.61
2018-09-02T02:20:05.641Z,101358.37
2018-09-02T02:21:12.304Z,101354.92
2018-09-02T02:22:18.645Z,101360.74
2018-09-02T02:23:25.056Z,101349.47
2018-09-02T02:24:31.474Z,101362.34
2018-09-02T02:25:37.883Z,101352.61
2018-09-02T02:26:44.024Z,101353.42
2018-09-02T02:27:50.414Z,101352.44
2018-09-02T02:28:56.707Z,101350.77
2018-09-02T02:30:02.969Z,101350.41
2018-09-02T02:31:09.366Z,101351.84
2018-09-02T02:32:15.681Z,101349.97
2018-09-02T02:33:23.085Z,101347.45
2018-09-02T02:34:30.436Z,101347.75
2018-09-02T02:35:36.737Z,101347.57
2018-09-02T02:36:43.254Z,101349.66
2018-09-02T02:37:51.533Z,101344.80
2018-09-02T02:39:00.707Z,101347.34
2018-09-02T02:40:07.166Z,101346.13
2018-09-02T02:41:13.555Z,101345.53
2018-09-02T02:42:20.450Z,101344.00
2018-09-02T02:43:26.604Z,101344.06
2018-09-02T02:44:32.964Z,101342.66
2018-09-02T02:45:39.077Z,101336.95
2018-09-02T02:46:45.519Z,101334.40
2018-09-02T02:47:51.821Z,101335.53
2018-09-02T02:48:58.139Z,101339.56
2018-09-02T02:50:05.039Z,101339.39
2018-09-02T02:51:11.505Z,101338.09
2018-09-02T02:52:22.773Z,101341.61
2018-09-02T02:53:28.920Z,101337.97
2018-09-02T02:54:35.305Z,101340.92
2018-09-02T02:55:41.673Z,101343.67
2018-09-02T02:56:49.562Z,101340.16
2018-09-02T02:57:56.002Z,101338.65
2018-09-02T02:59:02.380Z,101340.25
2018-09-02T03:00:08.453Z,101341.63
2018-09-02T03:01:15.613Z,101343.17
2018-09-02T03:02:22.022Z,101338.86
2018-09-02T03:03:28.360Z,101344.28
2018-09-02T03:04:34.795Z,101346.95
2018-09-02T03:05:41.229Z,101343.08
2018-09-02T03:06:47.860Z,101346.06
2018-09-02T03:07:54.216Z,101343.88
2018-09-02T03:09:00.352Z,101342.55
2018-09-02T03:10:06.688Z,101342.74
2018-09-02T03:11:13.998Z,101338.95
2018-09-02T03:12:20.420Z,101345.17
2018-09-02T03:13:26.809Z,101345.39
2018-09-02T03:14:33.216Z,101341.70
2018-09-02T03:15:40.275Z,101342.25
2018-09-02T03:16:46.709Z,101339.17
2018-09-02T03:17:53.102Z,101341.61
2018-09-02T03:19:00.467Z,101336.22
2018-09-02T03:20:06.864Z,101339.76
2018-09-02T03:21:13.188Z,101335.58
2018-09-02T03:22:19.493Z,101339.05
2018-09-02T03:23:25.493Z,101335.41
2018-09-02T03:24:31.780Z,101338.98
2018-09-02T03:25:38.181Z,101335.53
2018-09-02T03:26:44.588Z,101339.02
2018-09-02T03:27:50.739Z,101341.76
2018-09-02T03:28:56.693Z,101337.98
2018-09-02T03:30:02.377Z,101342.03
2018-09-02T03:31:08.795Z,101337.17
2018-09-02T03:32:15.157Z,101342.25
2018-09-02T03:33:21.543Z,101337.20
2018-09-02T03:34:27.998Z,101337.39
2018-09-02T03:35:34.259Z,101339.85
2018-09-02T03:36:39.899Z,101337.52
2018-09-02T03:37:46.570Z,101334.22
2018-09-02T03:38:53.004Z,101334.19
2018-09-02T03:40:00.248Z,101332.63
2018-09-02T03:41:06.802Z,101335.64
2018-09-02T03:42:13.761Z,101336.50
2018-09-02T03:43:19.984Z,101339.05
2018-09-02T03:44:26.384Z,101337.48
2018-09-02T03:45:32.832Z,101332.98
2018-09-02T03:46:39.191Z,101337.38
2018-09-02T03:47:50.284Z,101332.86
2018-09-02T03:48:56.360Z,101335.91
2018-09-02T03:50:02.736Z,101334.43
2018-09-02T03:51:09.117Z,101334.03
2018-09-02T03:52:15.525Z,101336.52
2018-09-02T03:53:21.803Z,101337.05
2018-09-02T03:54:28.127Z,101335.37
2018-09-02T03:55:34.561Z,101335.47
2018-09-02T03:56:40.961Z,101335.05
2018-09-02T03:57:47.416Z,101330.44
2018-09-02T03:58:53.503Z,101332.86
2018-09-02T03:59:59.821Z,101322.50
2018-09-02T04:01:06.507Z,101326.31
2018-09-02T04:02:12.875Z,101323.67
2018-09-02T04:03:19.282Z,101315.89
2018-09-02T04:04:25.694Z,101324.19
2018-09-02T04:05:31.972Z,101322.09
2018-09-02T04:06:38.843Z,101324.16
2018-09-02T04:07:45.957Z,101319.76
2018-09-02T04:08:52.140Z,101315.95
2018-09-02T04:09:58.811Z,101316.35
2018-09-02T04:11:05.355Z,101319.55
2018-09-02T04:12:11.794Z,101320.02
2018-09-02T04:13:18.110Z,101313.92
2018-09-02T04:14:24.408Z,101318.99
2018-09-02T04:15:30.839Z,101316.28
2018-09-02T04:16:37.224Z,101316.29
2018-09-02T04:17:43.621Z,101323.98
2018-09-02T04:18:50.029Z,101319.66
2018-09-02T04:19:57.328Z,101332.14
2018-09-02T04:21:04.221Z,101326.98
2018-09-02T04:22:10.650Z,101324.95
2018-09-02T04:23:17.075Z,101330.75
2018-09-02T04:24:23.158Z,101323.31
2018-09-02T04:25:29.572Z,101319.84
2018-09-02T04:26:35.987Z,101322.52
2018-09-02T04:27:42.122Z,101319.00
2018-09-02T04:28:48.100Z,101323.34
2018-09-02T04:29:54.097Z,101324.41
2018-09-02T04:31:00.798Z,101320.42
2018-09-02T04:32:07.028Z,101323.92
2018-09-02T04:33:13.275Z,101322.17
2018-09-02T04:34:19.323Z,101323.77
2018-09-02T04:35:25.802Z,101325.28
2018-09-02T04:36:32.096Z,101322.35
2018-09-02T04:37:38.549Z,101322.78
2018-09-02T04:38:44.717Z,101320.94
2018-09-02T04:39:51.575Z,101321.29
2018-09-02T04:40:58.296Z,101324.05
2018-09-02T04:42:03.901Z,101314.55
2018-09-02T04:43:10.189Z,101321.47
2018-09-02T04:44:16.132Z,101311.91
2018-09-02T04:45:21.803Z,101318.98
2018-09-02T04:46:28.916Z,101315.28
2018-09-02T04:47:35.138Z,101314.05
2018-09-02T04:48:41.538Z,101319.69
2018-09-02T04:49:47.855Z,101315.19
2018-09-02T04:50:54.140Z,101312.20
2018-09-02T04:52:00.578Z,101319.39
2018-09-02T04:53:07.038Z,101322.93
2018-09-02T04:54:13.743Z,101319.94
2018-09-02T04:55:20.309Z,101315.46
2018-09-02T04:56:26.693Z,101319.02
2018-09-02T04:57:33.026Z,101318.56
2018-09-02T04:58:39.364Z,101314.57
2018-09-02T04:59:45.639Z,101315.19
2018-09-02T05:00:52.101Z,101316.60
2018-09-02T05:01:58.616Z,101316.02
2018-09-02T05:03:04.988Z,101316.17
2018-09-02T05:04:11.256Z,101319.89
2018-09-02T05:05:17.669Z,101315.34
2018-09-02T05:06:24.036Z,101321.48
2018-09-02T05:07:30.377Z,101315.22
2018-09-02T05:08:36.795Z,101317.49
2018-09-02T05:09:43.180Z,101318.03
2018-09-02T05:10:49.518Z,101311.59
2018-09-02T05:11:55.817Z,101312.95
2018-09-02T05:13:02.256Z,101321.16
2018-09-02T05:14:08.358Z,101320.05
2018-09-02T05:15:14.600Z,101316.66
2018-09-02T05:16:20.950Z,101319.39
2018-09-02T05:17:27.041Z,101321.13
2018-09-02T05:18:33.588Z,101319.44
2018-09-02T05:19:40.010Z,101320.09
2018-09-02T05:20:46.433Z,101322.20
2018-09-02T05:21:52.492Z,101319.81
2018-09-02T05:22:58.693Z,101322.77
2018-09-02T05:24:04.830Z,101314.55
2018-09-02T05:25:11.578Z,101314.12
2018-09-02T05:26:17.976Z,101319.03
2018-09-02T05:27:24.143Z,101314.15
2018-09-02T05:28:30.621Z,101314.45
2018-09-02T05:29:36.914Z,101309.59
2018-09-02T05:30:43.283Z,101313.91
2018-09-02T05:31:49.688Z,101309.55
2018-09-02T05:32:55.959Z,101312.44
2018-09-02T05:34:02.872Z,101315.54
2018-09-02T05:35:08.940Z,101309.80
2018-09-02T05:36:16.012Z,101308.34
2018-09-02T05:37:22.322Z,101308.34
2018-09-02T05:38:28.757Z,101305.67
2018-09-02T05:39:35.080Z,101304.37
2018-09-02T05:40:41.481Z,101304.69
2018-09-02T05:41:47.872Z,101305.09
2018-09-02T05:42:54.304Z,101305.67
2018-09-02T05:44:00.628Z,101307.89
2018-09-02T05:45:06.528Z,101303.73
2018-09-02T05:46:12.584Z,101303.43
2018-09-02T05:47:19.777Z,101305.34
2018-09-02T05:48:26.124Z,101308.02
2018-09-02T05:49:32.449Z,101308.17
2018-09-02T05:50:39.003Z,101302.78
2018-09-02T05:51:45.406Z,101304.91
2018-09-02T05:52:51.892Z,101306.23
2018-09-02T05:53:58.247Z,101310.50
2018-09-02T05:55:04.576Z,101304.41
2018-09-02T05:56:10.893Z,101300.38
2018-09-02T05:57:17.178Z,101307.92
2018-09-02T05:58:24.411Z,101302.32
2018-09-02T05:59:30.631Z,101307.86
2018-09-02T06:00:37.025Z,101305.30
2018-09-02T06:01:43.428Z,101302.91
2018-09-02T06:02:49.961Z,101299.30
2018-09-02T06:03:56.500Z,101303.30
2018-09-02T06:05:02.789Z,101299.83
2018-09-02T06:06:08.953Z,101300.19
2018-09-02T06:07:15.921Z,101300.96
2018-09-02T06:08:22.784Z,101303.48
2018-09-02T06:09:28.713Z,101305.70
2018-09-02T06:10:35.117Z,101302.98
2018-09-02T06:11:41.771Z,101300.83
2018-09-02T06:12:48.264Z,101303.91
2018-09-02T06:13:55.877Z,101301.38
2018-09-02T06:15:02.885Z,101302.30
2018-09-02T06:16:09.489Z,101300.22
2018-09-02T06:17:15.784Z,101301.97
2018-09-02T06:18:22.291Z,101296.33
2018-09-02T06:19:30.894Z,101301.72
2018-09-02T06:20:38.552Z,101304.45
2018-09-02T06:21:45.673Z,101298.27
2018-09-02T06:22:52.310Z,101292.64
2018-09-02T06:23:59.055Z,101302.95
2018-09-02T06:25:05.155Z,101293.45
2018-09-02T06:26:11.523Z,101296.94
2018-09-02T06:27:17.924Z,101291.70
2018-09-02T06:28:24.337Z,101290.98
2018-09-02T06:29:30.787Z,101295.73
2018-09-02T06:30:37.620Z,101294.38
2018-09-02T06:31:44.167Z,101295.38
2018-09-02T06:32:50.881Z,101293.19
2018-09-02T06:33:57.657Z,101297.56
2018-09-02T06:35:04.275Z,101297.92
2018-09-02T06:36:11.105Z,101293.86
2018-09-02T06:37:17.725Z,101293.00
2018-09-02T06:38:24.358Z,101298.27
2018-09-02T06:39:31.036Z,101294.83
2018-09-02T06:40:37.800Z,101291.73
2018-09-02T06:41:44.425Z,101289.74
2018-09-02T06:42:50.767Z,101293.28
2018-09-02T06:43:57.898Z,101291.47
2018-09-02T06:45:03.863Z,101293.52
2018-09-02T06:46:10.304Z,101292.56
2018-09-02T06:47:16.713Z,101293.33
2018-09-02T06:48:23.115Z,101299.78
2018-09-02T06:49:29.569Z,101293.96
2018-09-02T06:50:36.233Z,101292.08
2018-09-02T06:51:42.930Z,101292.50
2018-09-02T06:52:49.741Z,101291.52
2018-09-02T06:53:56.614Z,101287.51
2018-09-02T06:55:03.068Z,101288.30
2018-09-02T06:56:10.027Z,101291.72
2018-09-02T06:57:16.765Z,101294.80
2018-09-02T06:58:22.775Z,101289.44
2018-09-02T06:59:29.818Z,101291.85
2018-09-02T07:00:36.061Z,101292.34
2018-09-02T07:01:42.407Z,101291.91
2018-09-02T07:02:49.216Z,101291.05
2018-09-02T07:03:56.185Z,101293.24
2018-09-02T07:05:02.883Z,101291.19
2018-09-02T07:06:09.428Z,101297.15
2018-09-02T07:07:15.974Z,101298.11
2018-09-02T07:08:21.762Z,101291.85
2018-09-02T07:09:28.242Z,101300.23
2018-09-02T07:10:34.686Z,101297.77
2018-09-02T07:11:41.289Z,101300.30
2018-09-02T07:12:47.578Z,101304.20
2018-09-02T07:13:54.023Z,101302.88
2018-09-02T07:15:00.088Z,101306.81
2018-09-02T07:16:07.544Z,101309.86
2018-09-02T07:17:13.964Z,101311.45
2018-09-02T07:18:21.403Z,101312.38
2018-09-02T07:19:27.514Z,101309.23
2018-09-02T07:20:34.120Z,101312.61
2018-09-02T07:21:40.541Z,101310.86
2018-09-02T07:22:47.072Z,101311.98
2018-09-02T07:23:54.004Z,101307.78
2018-09-02T07:25:00.520Z,101310.09
2018-09-02T07:26:07.139Z,101318.50
2018-09-02T07:27:13.654Z,101318.40
2018-09-02T07:28:21.095Z,101314.46
2018-09-02T07:29:27.703Z,101316.58
2018-09-02T07:30:34.309Z,101317.97
2018-09-02T07:31:40.753Z,101316.12
2018-09-02T07:32:47.144Z,101315.25
2018-09-02T07:33:54.497Z,101319.76
2018-09-02T07:35:01.582Z,101316.18
2018-09-02T07:36:08.304Z,101323.83
2018-09-02T07:37:14.835Z,101322.02
2018-09-02T07:38:21.175Z,101322.91
2018-09-02T07:39:28.206Z,101322.48
2018-09-02T07:40:36.460Z,101326.75
2018-09-02T07:41:42.721Z,101323.83
2018-09-02T07:42:49.979Z,101327.51
2018-09-02T07:43:56.632Z,101325.32
2018-09-02T07:45:03.330Z,101321.75
2018-09-02T07:46:09.406Z,101319.47
2018-09-02T07:47:15.607Z,101327.94
2018-09-02T07:48:22.956Z,101329.76
2018-09-02T07:49:29.377Z,101325.72
2018-09-02T07:50:35.929Z,101321.68
2018-09-02T07:51:42.246Z,101320.42
2018-09-02T07:52:48.631Z,101322.67
2018-09-02T07:53:55.060Z,101321.31
2018-09-02T07:55:02.076Z,101331.34
2018-09-02T07:56:08.528Z,101325.13
2018-09-02T07:57:14.883Z,101325.39
2018-09-02T07:58:21.309Z,101325.03
2018-09-02T07:59:28.553Z,101332.61
2018-09-02T08:00:34.967Z,101341.78
2018-09-02T08:01:41.274Z,101334.66
2018-09-02T08:02:47.647Z,101342.94
2018-09-02T08:03:54.200Z,101339.00
2018-09-02T08:05:00.551Z,101345.42
2018-09-02T08:06:06.504Z,101341.95
2018-09-02T08:07:13.047Z,101339.92
2018-09-02T08:08:19.435Z,101336.66
2018-09-02T08:09:25.908Z,101341.52
2018-09-02T08:10:32.312Z,101344.93
2018-09-02T08:11:38.704Z,101339.80
2018-09-02T08:12:45.172Z,101349.29
2018-09-02T08:13:51.547Z,101343.81
2018-09-02T08:14:57.948Z,101346.25
2018-09-02T08:16:04.129Z,101348.41
2018-09-02T08:17:10.425Z,101344.64
2018-09-02T08:18:16.754Z,101344.28
2018-09-02T08:19:23.178Z,101340.09
2018-09-02T08:20:29.623Z,101341.70
2018-09-02T08:21:35.919Z,101341.45
2018-09-02T08:22:42.091Z,101337.39
2018-09-02T08:23:48.295Z,101337.05
2018-09-02T08:24:54.691Z,101335.20
2018-09-02T08:26:01.079Z,101339.11
2018-09-02T08:27:07.356Z,101340.41
2018-09-02T08:28:13.432Z,101337.20
2018-09-02T08:29:19.834Z,101333.70
2018-09-02T08:30:26.237Z,101332.72
2018-09-02T08:31:32.642Z,101332.63
2018-09-02T08:32:38.923Z,101336.01
2018-09-02T08:33:45.661Z,101334.66
2018-09-02T08:34:51.935Z,101334.16
2018-09-02T08:35:58.395Z,101337.27
2018-09-02T08:37:04.737Z,101341.69
2018-09-02T08:38:11.083Z,101342.34
2018-09-02T08:39:17.578Z,101341.97
2018-09-02T08:40:24.136Z,101347.41
2018-09-02T08:41:30.465Z,101341.94
2018-09-02T08:42:37.432Z,101334.95
2018-09-02T08:43:43.777Z,101338.98
2018-09-02T08:44:50.163Z,101335.91
2018-09-02T08:45:56.651Z,101332.27
2018-09-02T08:47:03.027Z,101333.19
2018-09-02T08:48:09.437Z,101323.02
2018-09-02T08:49:15.897Z,101324.48
2018-09-02T08:50:30.144Z,101324.95
2018-09-02T08:51:39.760Z,101323.16
2018-09-02T08:52:52.686Z,101326.57
2018-09-02T08:54:26.807Z,101316.27
2018-09-02T08:55:37.308Z,101319.23
2018-09-02T08:56:47.613Z,101317.50
2018-09-02T08:57:53.949Z,101310.03
2018-09-02T08:59:00.389Z,101309.89
2018-09-02T09:00:05.992Z,101307.33
2018-09-02T09:01:12.430Z,101312.28
2018-09-02T09:02:19.734Z,101313.33
2018-09-02T09:03:25.816Z,101313.38
2018-09-02T09:04:32.221Z,101311.33
2018-09-02T09:05:43.517Z,101307.84
2018-09-02T09:06:49.915Z,101306.44
2018-09-02T09:07:56.017Z,101305.67
2018-09-02T09:09:02.674Z,101305.42
2018-09-02T09:10:08.835Z,101310.94
2018-09-02T09:11:16.609Z,101310.94
2018-09-02T09:12:24.962Z,101312.19
2018-09-02T09:13:32.392Z,101313.36
2018-09-02T09:14:40.675Z,101311.02
2018-09-02T09:15:49.328Z,101309.70
2018-09-02T09:16:59.651Z,101314.81
2018-09-02T09:18:07.415Z,101314.93
2018-09-02T09:19:15.116Z,101315.24
2018-09-02T09:20:23.857Z,101309.98
2018-09-02T09:21:31.722Z,101306.02
2018-09-02T09:22:38.694Z,101305.44
2018-09-02T09:23:45.379Z,101307.67
2018-09-02T09:24:51.762Z,101303.70
2018-09-02T09:25:58.495Z,101303.00
2018-09-02T09:27:04.448Z,101300.27
2018-09-02T09:28:10.937Z,101304.75
2018-09-02T09:29:17.356Z,101303.98
2018-09-02T09:30:23.716Z,101314.84
2018-09-02T09:31:30.052Z,101311.85
2018-09-02T09:32:36.473Z,101312.88
2018-09-02T09:33:42.873Z,101312.03
2018-09-02T09:34:49.248Z,101311.08
2018-09-02T09:35:55.703Z,101317.63
2018-09-02T09:37:02.034Z,101316.03
2018-09-02T09:38:08.440Z,101310.56
2018-09-02T09:39:14.875Z,101313.14
2018-09-02T09:40:21.258Z,101306.41
2018-09-02T09:41:27.686Z,101301.33
2018-09-02T09:42:34.101Z,101307.44
2018-09-02T09:43:40.502Z,101306.73
2018-09-02T09:44:47.057Z,101294.31
2018-09-02T09:45:53.803Z,101299.23
2018-09-02T09:47:00.774Z,101298.48
2018-09-02T09:48:07.193Z,101301.33
2018-09-02T09:49:13.323Z,101300.84
2018-09-02T09:50:19.796Z,101297.37
2018-09-02T09:51:26.220Z,101292.64
2018-09-02T09:52:34.042Z,101296.91
2018-09-02T09:53:40.489Z,101290.30
2018-09-02T09:54:47.131Z,101295.55
2018-09-02T09:55:53.752Z,101295.77
2018-09-02T09:57:01.439Z,101296.98
2018-09-02T09:58:07.221Z,101303.06
2018-09-02T09:59:14.736Z,101295.48
2018-09-02T10:00:20.880Z,101302.16
2018-09-02T10:01:27.659Z,101300.71
2018-09-02T10:02:39.120Z,101291.80
2018-09-02T10:03:45.740Z,101290.49
2018-09-02T10:04:52.281Z,101290.33
2018-09-02T10:05:58.604Z,101293.50
2018-09-02T10:07:04.352Z,101289.08
2018-09-02T10:08:10.727Z,101290.34
2018-09-02T10:09:17.081Z,101281.40
2018-09-02T10:10:23.836Z,101280.69
2018-09-02T10:11:30.263Z,101282.38
2018-09-02T10:12:36.975Z,101284.38
2018-09-02T10:13:43.268Z,101287.91
2018-09-02T10:14:50.315Z,101285.20
2018-09-02T10:15:56.687Z,101282.34
2018-09-02T10:17:02.828Z,101284.41
2018-09-02T10:18:08.998Z,101282.00
2018-09-02T10:19:15.618Z,101281.78
2018-09-02T10:20:22.592Z,101280.25
2018-09-02T10:22:39.643Z,101274.83
2018-09-02T10:23:46.089Z,101273.20
2018-09-02T10:24:52.489Z,101277.94
2018-09-02T10:25:59.671Z,101275.44
2018-09-02T10:27:06.127Z,101272.91
2018-09-02T10:28:12.374Z,101269.62
2018-09-02T10:29:18.852Z,101261.64
2018-09-02T10:30:25.263Z,101262.84
2018-09-02T10:31:31.682Z,101262.20
2018-09-02T10:32:38.297Z,101263.69
2018-09-02T10:33:44.733Z,101259.29
2018-09-02T10:34:51.121Z,101263.33
2018-09-02T10:35:57.568Z,101253.25
2018-09-02T10:37:04.006Z,101254.23
2018-09-02T10:38:11.393Z,101254.56
2018-09-02T10:39:17.805Z,101256.23
2018-09-02T10:40:24.243Z,101251.05
2018-09-02T10:41:30.939Z,101247.45
2018-09-02T10:42:42.612Z,101246.04
2018-09-02T10:43:49.622Z,101243.80
2018-09-02T10:44:56.884Z,101247.02
2018-09-02T10:46:03.709Z,101237.03
2018-09-02T10:47:10.097Z,101245.83
2018-09-02T10:48:16.535Z,101235.99
2018-09-02T10:49:22.651Z,101236.23
2018-09-02T10:50:29.118Z,101232.45
2018-09-02T10:51:35.301Z,101235.75
2018-09-02T10:52:41.755Z,101233.59
2018-09-02T10:53:48.177Z,101233.25
2018-09-02T10:54:54.544Z,101235.99
2018-09-02T10:56:00.932Z,101238.88
2018-09-02T10:57:07.316Z,101234.52
2018-09-02T10:58:13.864Z,101236.45
2018-09-02T10:59:20.215Z,101236.05
2018-09-02T11:00:27.672Z,101225.88
2018-09-02T11:01:34.057Z,101230.18
2018-09-02T11:02:40.925Z,101239.38
2018-09-02T11:03:47.537Z,101228.83
2018-09-02T11:04:55.173Z,101232.09
2018-09-02T11:06:02.527Z,101235.71
2018-09-02T11:07:09.048Z,101230.52
2018-09-02T11:08:16.580Z,101228.30
2018-09-02T11:09:23.400Z,101224.64
2018-09-02T11:10:29.745Z,101225.75
2018-09-02T11:11:36.617Z,101223.20
2018-09-02T11:12:43.360Z,101213.27
2018-09-02T11:13:49.814Z,101223.05
2018-09-02T11:14:57.186Z,101213.73
2018-09-02T11:16:03.371Z,101217.59
2018-09-02T11:17:09.812Z,101218.55
2018-09-02T11:18:16.634Z,101216.27
2018-09-02T11:19:23.337Z,101212.52
2018-09-02T11:20:29.527Z,101214.02
2018-09-02T11:21:36.003Z,101212.97
2018-09-02T11:22:42.419Z,101214.72
2018-09-02T11:23:48.835Z,101207.47
2018-09-02T11:24:55.234Z,101210.12
2018-09-02T11:26:01.396Z,101215.41
2018-09-02T11:27:07.848Z,101215.59
2018-09-02T11:28:14.234Z,101217.44
2018-09-02T11:29:20.442Z,101214.20
2018-09-02T11:30:26.853Z,101213.67
2018-09-02T11:31:33.187Z,101210.66
2018-09-02T11:32:39.446Z,101206.63
2018-09-02T11:33:45.907Z,101201.95
2018-09-02T11:34:52.448Z,101198.78
2018-09-02T11:35:58.881Z,101199.44
2018-09-02T11:37:06.857Z,101195.97
2018-09-02T11:38:17.415Z,101199.87
2018-09-02T11:39:25.380Z,101192.70
2018-09-02T11:40:33.875Z,101182.35
2018-09-02T11:41:43.245Z,101189.98
2018-09-02T11:42:51.410Z,101184.20
2018-09-02T11:43:58.722Z,101181.76
2018-09-02T11:45:06.317Z,101185.17
2018-09-02T11:46:13.070Z,101184.94
2018-09-02T11:47:20.282Z,101190.30
2018-09-02T11:48:26.396Z,101184.21
2018-09-02T11:49:32.804Z,101187.66
2018-09-02T11:50:39.216Z,101186.06
2018-09-02T11:51:45.292Z,101184.88
2018-09-02T11:52:52.293Z,101183.18
2018-09-02T11:53:58.707Z,101190.32
2018-09-02T11:55:04.863Z,101183.94
2018-09-02T11:56:11.399Z,101175.14
2018-09-02T11:57:17.669Z,101177.95
2018-09-02T11:58:24.121Z,101168.09
2018-09-02T11:59:30.470Z,101178.52
2018-09-02T12:00:37.029Z,101172.23
2018-09-02T12:01:43.126Z,101172.95
2018-09-02T12:02:49.535Z,101171.20
2018-09-02T12:03:56.549Z,101168.39
2018-09-02T12:05:02.982Z,101168.31
2018-09-02T12:06:09.391Z,101165.55
2018-09-02T12:07:15.885Z,101165.78
2018-09-02T12:08:22.309Z,101168.56
2018-09-02T12:09:29.404Z,101163.73
2018-09-02T12:10:36.161Z,101164.27
2018-09-02T12:11:42.680Z,101166.31
2018-09-02T12:12:48.960Z,101164.33
2018-09-02T12:13:55.656Z,101165.25
2018-09-02T12:15:02.057Z,101165.09
2018-09-02T12:16:08.988Z,101168.53
2018-09-02T12:17:15.416Z,101165.25
2018-09-02T12:18:21.620Z,101167.73
2018-09-02T12:19:28.038Z,101174.33
2018-09-02T12:20:34.479Z,101171.64
2018-09-02T12:21:40.640Z,101176.73
2018-09-02T12:22:47.075Z,101173.48
2018-09-02T12:23:53.631Z,101175.55
2018-09-02T12:25:00.121Z,101180.34
2018-09-02T12:26:06.194Z,101178.65
2018-09-02T12:27:12.675Z,101177.72
2018-09-02T12:28:19.079Z,101177.30
2018-09-02T12:29:26.480Z,101177.62
2018-09-02T12:30:32.907Z,101171.80
2018-09-02T12:31:39.392Z,101173.06
2018-09-02T12:32:45.973Z,101174.22
2018-09-02T12:33:52.480Z,101169.42
2018-09-02T12:34:58.916Z,101168.37
2018-09-02T12:36:04.898Z,101172.50
2018-09-02T12:37:10.966Z,101171.94
2018-09-02T12:38:17.423Z,101167.38
2018-09-02T12:39:23.831Z,101161.88
2018-09-02T12:40:31.097Z,101162.91
2018-09-02T12:41:37.820Z,101158.02